sensor_id;sensor_type;location;lat;lon;timestamp;temperature;humidity
17887;DHT22;9069;52.044;7.472;2022-11-20T00:01:28;2.00;95.30
17887;DHT22;9069;52.044;7.472;2022-11-20T00:03:56;2.00;95.60
17887;DHT22;9069;52.044;7.472;2022-11-20T00:06:25;2.00;95.60
17887;DHT22;9069;52.044;7.472;2022-11-20T00:08:55;2.00;95.50
17887;DHT22;9069;52.044;7.472;2022-11-20T00:11:24;2.00;95.40
17887;DHT22;9069;52.044;7.472;2022-11-20T00:13:53;2.00;95.60
17887;DHT22;9069;52.044;7.472;2022-11-20T00:16:22;2.00;95.70
17887;DHT22;9069;52.044;7.472;2022-11-20T00:18:49;1.90;95.80
17887;DHT22;9069;52.044;7.472;2022-11-20T00:21:19;2.00;96.00
17887;DHT22;9069;52.044;7.472;2022-11-20T00:23:48;2.00;95.80
17887;DHT22;9069;52.044;7.472;2022-11-20T00:26:16;2.00;95.90
17887;DHT22;9069;52.044;7.472;2022-11-20T00:28:48;2.10;95.80
17887;DHT22;9069;52.044;7.472;2022-11-20T00:31:15;2.00;95.90
17887;DHT22;9069;52.044;7.472;2022-11-20T00:33:43;2.00;96.00
17887;DHT22;9069;52.044;7.472;2022-11-20T00:36:21;2.00;96.00
17887;DHT22;9069;52.044;7.472;2022-11-20T00:38:53;2.00;95.90
17887;DHT22;9069;52.044;7.472;2022-11-20T00:41:20;2.00;95.80
17887;DHT22;9069;52.044;7.472;2022-11-20T00:43:47;2.00;96.10
17887;DHT22;9069;52.044;7.472;2022-11-20T00:46:19;2.00;96.20
17887;DHT22;9069;52.044;7.472;2022-11-20T00:48:46;2.00;96.00
17887;DHT22;9069;52.044;7.472;2022-11-20T00:51:15;2.00;96.20
17887;DHT22;9069;52.044;7.472;2022-11-20T00:53:43;2.00;96.10
17887;DHT22;9069;52.044;7.472;2022-11-20T00:56:15;2.00;96.10
17887;DHT22;9069;52.044;7.472;2022-11-20T00:58:44;2.00;95.90
17887;DHT22;9069;52.044;7.472;2022-11-20T01:01:19;2.00;96.00
17887;DHT22;9069;52.044;7.472;2022-11-20T01:03:48;2.00;95.90
17887;DHT22;9069;52.044;7.472;2022-11-20T01:06:17;1.90;95.90
17887;DHT22;9069;52.044;7.472;2022-11-20T01:08:44;2.00;96.00
17887;DHT22;9069;52.044;7.472;2022-11-20T01:11:23;1.90;96.00
17887;DHT22;9069;52.044;7.472;2022-11-20T01:13:51;1.90;95.80
17887;DHT22;9069;52.044;7.472;2022-11-20T01:16:21;1.90;95.90
17887;DHT22;9069;52.044;7.472;2022-11-20T01:18:50;1.90;95.80
17887;DHT22;9069;52.044;7.472;2022-11-20T01:21:26;1.80;95.70
17887;DHT22;9069;52.044;7.472;2022-11-20T01:23:53;1.90;95.60
17887;DHT22;9069;52.044;7.472;2022-11-20T01:26:25;1.80;95.80
17887;DHT22;9069;52.044;7.472;2022-11-20T01:28:53;1.80;95.60
17887;DHT22;9069;52.044;7.472;2022-11-20T01:33:56;1.80;95.60
17887;DHT22;9069;52.044;7.472;2022-11-20T01:36:25;1.80;95.60
17887;DHT22;9069;52.044;7.472;2022-11-20T01:38:54;1.80;95.80
17887;DHT22;9069;52.044;7.472;2022-11-20T01:41:22;1.70;95.90
17887;DHT22;9069;52.044;7.472;2022-11-20T01:44:11;1.70;96.00
17887;DHT22;9069;52.044;7.472;2022-11-20T01:46:40;1.70;95.80
17887;DHT22;9069;52.044;7.472;2022-11-20T01:51:42;1.70;95.70
17887;DHT22;9069;52.044;7.472;2022-11-20T01:54:15;1.70;95.90
17887;DHT22;9069;52.044;7.472;2022-11-20T01:56:44;1.70;95.80
17887;DHT22;9069;52.044;7.472;2022-11-20T01:59:14;1.70;95.80
17887;DHT22;9069;52.044;7.472;2022-11-20T02:01:41;1.60;95.80
17887;DHT22;9069;52.044;7.472;2022-11-20T02:04:08;1.70;96.00
17887;DHT22;9069;52.044;7.472;2022-11-20T02:06:42;1.70;96.00
17887;DHT22;9069;52.044;7.472;2022-11-20T02:09:10;1.60;95.80
17887;DHT22;9069;52.044;7.472;2022-11-20T02:11:38;1.60;96.10
17887;DHT22;9069;52.044;7.472;2022-11-20T02:14:04;1.60;96.10
17887;DHT22;9069;52.044;7.472;2022-11-20T02:16:35;1.60;96.00
17887;DHT22;9069;52.044;7.472;2022-11-20T02:19:06;1.60;95.80
17887;DHT22;9069;52.044;7.472;2022-11-20T02:21:42;1.60;95.80
17887;DHT22;9069;52.044;7.472;2022-11-20T02:26:53;1.60;95.80
17887;DHT22;9069;52.044;7.472;2022-11-20T02:29:31;1.60;95.70
17887;DHT22;9069;52.044;7.472;2022-11-20T02:32:00;1.50;95.50
17887;DHT22;9069;52.044;7.472;2022-11-20T02:34:27;1.50;95.80
17887;DHT22;9069;52.044;7.472;2022-11-20T02:36:56;1.50;95.90
17887;DHT22;9069;52.044;7.472;2022-11-20T02:39:25;1.50;95.80
17887;DHT22;9069;52.044;7.472;2022-11-20T02:41:54;1.60;95.80
17887;DHT22;9069;52.044;7.472;2022-11-20T02:44:22;1.70;95.90
17887;DHT22;9069;52.044;7.472;2022-11-20T02:46:48;1.60;96.00
17887;DHT22;9069;52.044;7.472;2022-11-20T02:49:15;1.50;96.00
17887;DHT22;9069;52.044;7.472;2022-11-20T02:51:43;1.40;96.00
17887;DHT22;9069;52.044;7.472;2022-11-20T02:54:10;1.50;96.00
17887;DHT22;9069;52.044;7.472;2022-11-20T02:56:38;1.40;96.00
17887;DHT22;9069;52.044;7.472;2022-11-20T02:59:05;1.40;95.90
17887;DHT22;9069;52.044;7.472;2022-11-20T03:01:32;1.40;95.90
17887;DHT22;9069;52.044;7.472;2022-11-20T03:03:58;1.40;95.90
17887;DHT22;9069;52.044;7.472;2022-11-20T03:06:25;1.40;95.80
17887;DHT22;9069;52.044;7.472;2022-11-20T03:08:51;1.40;95.80
17887;DHT22;9069;52.044;7.472;2022-11-20T03:11:18;1.40;95.80
17887;DHT22;9069;52.044;7.472;2022-11-20T03:13:45;1.40;95.80
17887;DHT22;9069;52.044;7.472;2022-11-20T03:16:17;1.40;95.90
17887;DHT22;9069;52.044;7.472;2022-11-20T03:18:44;1.40;95.60
17887;DHT22;9069;52.044;7.472;2022-11-20T03:21:13;1.40;95.80
17887;DHT22;9069;52.044;7.472;2022-11-20T03:23:40;1.30;95.70
17887;DHT22;9069;52.044;7.472;2022-11-20T03:26:22;1.30;95.80
17887;DHT22;9069;52.044;7.472;2022-11-20T03:28:50;1.30;95.30
17887;DHT22;9069;52.044;7.472;2022-11-20T03:31:20;1.30;95.70
17887;DHT22;9069;52.044;7.472;2022-11-20T03:33:47;1.30;95.60
17887;DHT22;9069;52.044;7.472;2022-11-20T03:36:16;1.40;95.70
17887;DHT22;9069;52.044;7.472;2022-11-20T03:38:43;1.30;95.60
17887;DHT22;9069;52.044;7.472;2022-11-20T03:41:18;1.20;95.70
17887;DHT22;9069;52.044;7.472;2022-11-20T03:43:50;1.20;95.50
17887;DHT22;9069;52.044;7.472;2022-11-20T03:46:17;1.30;95.60
17887;DHT22;9069;52.044;7.472;2022-11-20T03:48:43;1.20;95.80
17887;DHT22;9069;52.044;7.472;2022-11-20T03:53:46;1.20;95.80
17887;DHT22;9069;52.044;7.472;2022-11-20T03:56:15;1.20;95.70
17887;DHT22;9069;52.044;7.472;2022-11-20T03:58:43;1.20;95.80
17887;DHT22;9069;52.044;7.472;2022-11-20T04:01:13;1.10;95.80
17887;DHT22;9069;52.044;7.472;2022-11-20T04:03:42;1.10;95.80
17887;DHT22;9069;52.044;7.472;2022-11-20T04:06:14;1.30;95.80
17887;DHT22;9069;52.044;7.472;2022-11-20T04:08:41;1.10;95.70
17887;DHT22;9069;52.044;7.472;2022-11-20T04:13:39;1.10;95.80
17887;DHT22;9069;52.044;7.472;2022-11-20T04:16:07;1.10;96.00
17887;DHT22;9069;52.044;7.472;2022-11-20T04:18:34;1.20;96.00
17887;DHT22;9069;52.044;7.472;2022-11-20T04:21:01;1.10;96.00
17887;DHT22;9069;52.044;7.472;2022-11-20T04:23:28;1.30;96.00
17887;DHT22;9069;52.044;7.472;2022-11-20T04:26:07;1.00;95.90
17887;DHT22;9069;52.044;7.472;2022-11-20T04:28:35;1.00;95.60
17887;DHT22;9069;52.044;7.472;2022-11-20T04:31:06;1.00;95.90
17887;DHT22;9069;52.044;7.472;2022-11-20T04:33:34;1.00;95.90
17887;DHT22;9069;52.044;7.472;2022-11-20T04:36:03;1.00;95.90
17887;DHT22;9069;52.044;7.472;2022-11-20T04:38:30;1.00;95.90
17887;DHT22;9069;52.044;7.472;2022-11-20T04:41:02;0.90;96.00
17887;DHT22;9069;52.044;7.472;2022-11-20T04:43:29;1.00;96.00
17887;DHT22;9069;52.044;7.472;2022-11-20T04:45:57;1.00;96.10
17887;DHT22;9069;52.044;7.472;2022-11-20T04:48:25;1.00;96.10
17887;DHT22;9069;52.044;7.472;2022-11-20T04:50:52;0.90;96.10
17887;DHT22;9069;52.044;7.472;2022-11-20T04:53:19;0.90;96.20
17887;DHT22;9069;52.044;7.472;2022-11-20T04:55:46;0.90;96.10
17887;DHT22;9069;52.044;7.472;2022-11-20T04:58:13;0.90;96.20
17887;DHT22;9069;52.044;7.472;2022-11-20T05:00:40;0.90;96.20
17887;DHT22;9069;52.044;7.472;2022-11-20T05:03:07;0.90;96.20
17887;DHT22;9069;52.044;7.472;2022-11-20T05:05:34;0.80;96.20
17887;DHT22;9069;52.044;7.472;2022-11-20T05:08:01;0.80;96.20
17887;DHT22;9069;52.044;7.472;2022-11-20T05:10:28;1.00;96.30
17887;DHT22;9069;52.044;7.472;2022-11-20T05:12:55;0.80;96.20
17887;DHT22;9069;52.044;7.472;2022-11-20T05:15:23;0.80;96.20
17887;DHT22;9069;52.044;7.472;2022-11-20T05:17:51;0.80;96.20
17887;DHT22;9069;52.044;7.472;2022-11-20T05:20:18;0.80;96.20
17887;DHT22;9069;52.044;7.472;2022-11-20T05:22:45;0.70;96.30
17887;DHT22;9069;52.044;7.472;2022-11-20T05:25:12;0.70;96.30
17887;DHT22;9069;52.044;7.472;2022-11-20T05:27:38;0.70;96.30
17887;DHT22;9069;52.044;7.472;2022-11-20T05:30:06;0.70;96.30
17887;DHT22;9069;52.044;7.472;2022-11-20T05:32:33;0.70;96.30
17887;DHT22;9069;52.044;7.472;2022-11-20T05:34:59;0.80;96.30
17887;DHT22;9069;52.044;7.472;2022-11-20T05:37:26;0.80;96.30
17887;DHT22;9069;52.044;7.472;2022-11-20T05:39:52;0.60;96.20
17887;DHT22;9069;52.044;7.472;2022-11-20T05:42:19;0.80;96.20
17887;DHT22;9069;52.044;7.472;2022-11-20T05:44:58;0.60;96.20
17887;DHT22;9069;52.044;7.472;2022-11-20T05:47:27;0.80;96.30
17887;DHT22;9069;52.044;7.472;2022-11-20T05:49:53;0.60;96.30
17887;DHT22;9069;52.044;7.472;2022-11-20T05:52:20;0.60;96.30
17887;DHT22;9069;52.044;7.472;2022-11-20T05:54:47;0.60;96.30
17887;DHT22;9069;52.044;7.472;2022-11-20T05:57:14;0.60;96.30
17887;DHT22;9069;52.044;7.472;2022-11-20T05:59:41;0.60;96.40
17887;DHT22;9069;52.044;7.472;2022-11-20T06:02:07;0.60;96.40
17887;DHT22;9069;52.044;7.472;2022-11-20T06:04:34;0.60;96.40
17887;DHT22;9069;52.044;7.472;2022-11-20T06:07:00;0.60;96.40
17887;DHT22;9069;52.044;7.472;2022-11-20T06:09:27;0.60;96.50
17887;DHT22;9069;52.044;7.472;2022-11-20T06:11:54;0.70;96.50
17887;DHT22;9069;52.044;7.472;2022-11-20T06:14:20;0.60;96.50
17887;DHT22;9069;52.044;7.472;2022-11-20T06:16:47;0.60;96.50
17887;DHT22;9069;52.044;7.472;2022-11-20T06:19:14;0.60;96.50
17887;DHT22;9069;52.044;7.472;2022-11-20T06:21:41;0.60;96.50
17887;DHT22;9069;52.044;7.472;2022-11-20T06:24:11;0.70;96.60
17887;DHT22;9069;52.044;7.472;2022-11-20T06:26:37;0.60;96.50
17887;DHT22;9069;52.044;7.472;2022-11-20T06:29:04;0.60;96.60
17887;DHT22;9069;52.044;7.472;2022-11-20T06:31:31;0.60;96.60
17887;DHT22;9069;52.044;7.472;2022-11-20T06:34:01;0.80;96.60
17887;DHT22;9069;52.044;7.472;2022-11-20T06:36:27;0.60;96.60
17887;DHT22;9069;52.044;7.472;2022-11-20T06:38:54;0.60;96.60
17887;DHT22;9069;52.044;7.472;2022-11-20T06:41:23;0.60;96.60
17887;DHT22;9069;52.044;7.472;2022-11-20T06:43:50;0.60;96.60
17887;DHT22;9069;52.044;7.472;2022-11-20T06:46:18;0.60;96.60
17887;DHT22;9069;52.044;7.472;2022-11-20T06:48:46;0.60;96.50
17887;DHT22;9069;52.044;7.472;2022-11-20T06:51:13;0.60;96.50
17887;DHT22;9069;52.044;7.472;2022-11-20T06:53:40;0.60;96.50
17887;DHT22;9069;52.044;7.472;2022-11-20T06:56:07;0.70;96.60
17887;DHT22;9069;52.044;7.472;2022-11-20T06:58:35;0.60;96.50
17887;DHT22;9069;52.044;7.472;2022-11-20T07:01:04;0.60;96.40
17887;DHT22;9069;52.044;7.472;2022-11-20T07:03:32;0.60;96.40
17887;DHT22;9069;52.044;7.472;2022-11-20T07:06:00;0.50;96.50
17887;DHT22;9069;52.044;7.472;2022-11-20T07:08:27;0.60;96.50
17887;DHT22;9069;52.044;7.472;2022-11-20T07:11:00;0.50;96.60
17887;DHT22;9069;52.044;7.472;2022-11-20T07:13:28;0.50;96.70
17887;DHT22;9069;52.044;7.472;2022-11-20T07:15:59;0.60;96.90
17887;DHT22;9069;52.044;7.472;2022-11-20T07:18:26;0.60;96.90
17887;DHT22;9069;52.044;7.472;2022-11-20T07:20:53;0.50;97.00
17887;DHT22;9069;52.044;7.472;2022-11-20T07:23:20;0.50;97.10
17887;DHT22;9069;52.044;7.472;2022-11-20T07:25:46;0.60;97.10
17887;DHT22;9069;52.044;7.472;2022-11-20T07:28:13;0.50;97.10
17887;DHT22;9069;52.044;7.472;2022-11-20T07:30:40;0.60;97.20
17887;DHT22;9069;52.044;7.472;2022-11-20T07:33:06;0.50;97.20
17887;DHT22;9069;52.044;7.472;2022-11-20T07:35:33;0.80;97.40
17887;DHT22;9069;52.044;7.472;2022-11-20T07:38:00;0.60;97.40
17887;DHT22;9069;52.044;7.472;2022-11-20T07:40:26;0.60;97.50
17887;DHT22;9069;52.044;7.472;2022-11-20T07:42:55;0.70;97.90
17887;DHT22;9069;52.044;7.472;2022-11-20T07:45:23;0.60;97.60
17887;DHT22;9069;52.044;7.472;2022-11-20T07:47:50;0.70;97.70
17887;DHT22;9069;52.044;7.472;2022-11-20T07:50:18;0.70;97.80
17887;DHT22;9069;52.044;7.472;2022-11-20T07:52:45;0.70;98.00
17887;DHT22;9069;52.044;7.472;2022-11-20T07:55:12;0.80;98.10
17887;DHT22;9069;52.044;7.472;2022-11-20T07:57:39;0.80;98.20
17887;DHT22;9069;52.044;7.472;2022-11-20T08:00:08;0.90;98.40
17887;DHT22;9069;52.044;7.472;2022-11-20T08:02:39;0.90;98.50
17887;DHT22;9069;52.044;7.472;2022-11-20T08:05:07;1.00;98.60
17887;DHT22;9069;52.044;7.472;2022-11-20T08:07:42;1.00;98.70
17887;DHT22;9069;52.044;7.472;2022-11-20T08:10:12;1.10;98.70
17887;DHT22;9069;52.044;7.472;2022-11-20T08:12:50;1.10;98.80
17887;DHT22;9069;52.044;7.472;2022-11-20T08:15:37;1.20;98.80
17887;DHT22;9069;52.044;7.472;2022-11-20T08:18:10;1.30;99.00
17887;DHT22;9069;52.044;7.472;2022-11-20T08:21:01;1.30;99.00
17887;DHT22;9069;52.044;7.472;2022-11-20T08:23:28;1.40;99.10
17887;DHT22;9069;52.044;7.472;2022-11-20T08:25:54;1.50;99.20
17887;DHT22;9069;52.044;7.472;2022-11-20T08:28:21;1.50;99.40
17887;DHT22;9069;52.044;7.472;2022-11-20T08:30:49;1.60;99.50
17887;DHT22;9069;52.044;7.472;2022-11-20T08:33:16;1.70;99.60
17887;DHT22;9069;52.044;7.472;2022-11-20T08:35:43;1.70;99.60
17887;DHT22;9069;52.044;7.472;2022-11-20T08:38:10;1.80;99.70
17887;DHT22;9069;52.044;7.472;2022-11-20T08:40:37;1.90;99.80
17887;DHT22;9069;52.044;7.472;2022-11-20T08:43:03;1.90;99.90
17887;DHT22;9069;52.044;7.472;2022-11-20T08:45:30;2.00;99.90
17887;DHT22;9069;52.044;7.472;2022-11-20T08:48:02;2.10;99.90
17887;DHT22;9069;52.044;7.472;2022-11-20T08:50:29;2.10;99.90
17887;DHT22;9069;52.044;7.472;2022-11-20T08:53:04;2.20;99.90
17887;DHT22;9069;52.044;7.472;2022-11-20T08:55:32;2.30;99.90
17887;DHT22;9069;52.044;7.472;2022-11-20T08:58:03;2.40;99.90
17887;DHT22;9069;52.044;7.472;2022-11-20T09:00:30;2.40;99.90
17887;DHT22;9069;52.044;7.472;2022-11-20T09:02:57;2.50;99.90
17887;DHT22;9069;52.044;7.472;2022-11-20T09:05:24;2.60;99.90
17887;DHT22;9069;52.044;7.472;2022-11-20T09:07:51;2.70;99.90
17887;DHT22;9069;52.044;7.472;2022-11-20T09:10:18;2.80;99.90
17887;DHT22;9069;52.044;7.472;2022-11-20T09:12:50;3.00;99.90
17887;DHT22;9069;52.044;7.472;2022-11-20T09:15:18;3.10;99.90
17887;DHT22;9069;52.044;7.472;2022-11-20T09:18:00;3.20;99.90
17887;DHT22;9069;52.044;7.472;2022-11-20T09:20:28;3.40;99.90
17887;DHT22;9069;52.044;7.472;2022-11-20T09:22:56;3.50;99.90
17887;DHT22;9069;52.044;7.472;2022-11-20T09:25:23;3.70;99.90
17887;DHT22;9069;52.044;7.472;2022-11-20T09:27:57;3.80;99.90
17887;DHT22;9069;52.044;7.472;2022-11-20T09:30:24;4.10;99.90
17887;DHT22;9069;52.044;7.472;2022-11-20T09:32:51;4.30;99.90
17887;DHT22;9069;52.044;7.472;2022-11-20T09:35:18;4.60;99.90
17887;DHT22;9069;52.044;7.472;2022-11-20T09:37:45;5.00;99.90
17887;DHT22;9069;52.044;7.472;2022-11-20T09:40:26;5.40;99.90
17887;DHT22;9069;52.044;7.472;2022-11-20T09:52:09;7.40;99.90
17887;DHT22;9069;52.044;7.472;2022-11-20T09:54:40;7.80;99.90
17887;DHT22;9069;52.044;7.472;2022-11-20T09:57:23;8.30;99.90
17887;DHT22;9069;52.044;7.472;2022-11-20T09:59:58;8.70;99.90
17887;DHT22;9069;52.044;7.472;2022-11-20T10:10:45;10.00;99.70
17887;DHT22;9069;52.044;7.472;2022-11-20T10:16:23;10.20;98.40
17887;DHT22;9069;52.044;7.472;2022-11-20T10:21:58;10.20;97.30
17887;DHT22;9069;52.044;7.472;2022-11-20T10:30:16;10.10;98.00
17887;DHT22;9069;52.044;7.472;2022-11-20T10:32:49;10.00;96.20
17887;DHT22;9069;52.044;7.472;2022-11-20T10:35:40;10.00;96.90
17887;DHT22;9069;52.044;7.472;2022-11-20T10:38:14;9.90;96.60
17887;DHT22;9069;52.044;7.472;2022-11-20T10:40:44;9.80;97.00
17887;DHT22;9069;52.044;7.472;2022-11-20T10:43:23;9.70;97.10
17887;DHT22;9069;52.044;7.472;2022-11-20T10:46:00;9.70;96.10
17887;DHT22;9069;52.044;7.472;2022-11-20T10:48:31;9.60;96.10
17887;DHT22;9069;52.044;7.472;2022-11-20T10:56:30;9.50;97.00
17887;DHT22;9069;52.044;7.472;2022-11-20T11:01:40;9.30;96.60
17887;DHT22;9069;52.044;7.472;2022-11-20T11:04:38;9.20;96.20
17887;DHT22;9069;52.044;7.472;2022-11-20T11:07:26;9.20;95.50
17887;DHT22;9069;52.044;7.472;2022-11-20T11:09:55;9.20;95.70
17887;DHT22;9069;52.044;7.472;2022-11-20T11:12:24;9.10;96.80
17887;DHT22;9069;52.044;7.472;2022-11-20T11:14:54;9.10;96.60
17887;DHT22;9069;52.044;7.472;2022-11-20T11:17:30;9.00;96.60
17887;DHT22;9069;52.044;7.472;2022-11-20T11:20:16;9.00;96.20
17887;DHT22;9069;52.044;7.472;2022-11-20T11:22:54;9.00;96.10
17887;DHT22;9069;52.044;7.472;2022-11-20T11:27:56;9.00;96.50
17887;DHT22;9069;52.044;7.472;2022-11-20T11:30:24;9.00;97.00
17887;DHT22;9069;52.044;7.472;2022-11-20T11:33:03;8.90;97.10
17887;DHT22;9069;52.044;7.472;2022-11-20T11:35:31;8.90;96.40
17887;DHT22;9069;52.044;7.472;2022-11-20T11:38:12;8.90;97.30
17887;DHT22;9069;52.044;7.472;2022-11-20T11:40:40;8.90;96.20
17887;DHT22;9069;52.044;7.472;2022-11-20T11:43:17;8.90;97.40
17887;DHT22;9069;52.044;7.472;2022-11-20T11:51:36;9.00;96.60
17887;DHT22;9069;52.044;7.472;2022-11-20T11:54:16;9.10;97.00
17887;DHT22;9069;52.044;7.472;2022-11-20T11:56:44;9.10;96.50
17887;DHT22;9069;52.044;7.472;2022-11-20T11:59:17;9.10;96.90
17887;DHT22;9069;52.044;7.472;2022-11-20T12:01:57;9.20;96.20
17887;DHT22;9069;52.044;7.472;2022-11-20T12:04:48;9.20;96.10
17887;DHT22;9069;52.044;7.472;2022-11-20T12:07:45;9.20;95.00
17887;DHT22;9069;52.044;7.472;2022-11-20T12:10:21;9.30;95.40
17887;DHT22;9069;52.044;7.472;2022-11-20T12:12:55;9.30;95.20
17887;DHT22;9069;52.044;7.472;2022-11-20T12:15:33;9.30;94.80
17887;DHT22;9069;52.044;7.472;2022-11-20T12:18:00;9.30;94.00
17887;DHT22;9069;52.044;7.472;2022-11-20T12:20:35;9.30;95.30
17887;DHT22;9069;52.044;7.472;2022-11-20T12:23:34;9.20;94.50
17887;DHT22;9069;52.044;7.472;2022-11-20T12:40:07;8.80;93.80
17887;DHT22;9069;52.044;7.472;2022-11-20T12:43:11;8.70;94.20
17887;DHT22;9069;52.044;7.472;2022-11-20T12:51:44;8.50;95.10
17887;DHT22;9069;52.044;7.472;2022-11-20T13:08:41;8.10;94.30
17887;DHT22;9069;52.044;7.472;2022-11-20T13:11:27;8.00;94.50
17887;DHT22;9069;52.044;7.472;2022-11-20T13:16:32;7.90;95.60
17887;DHT22;9069;52.044;7.472;2022-11-20T13:19:12;7.80;95.40
17887;DHT22;9069;52.044;7.472;2022-11-20T13:21:44;7.80;95.10
17887;DHT22;9069;52.044;7.472;2022-11-20T13:26:46;7.80;95.60
17887;DHT22;9069;52.044;7.472;2022-11-20T13:29:18;7.80;95.90
17887;DHT22;9069;52.044;7.472;2022-11-20T13:31:46;7.70;95.50
17887;DHT22;9069;52.044;7.472;2022-11-20T13:34:23;7.70;95.70
17887;DHT22;9069;52.044;7.472;2022-11-20T13:36:55;7.70;95.10
17887;DHT22;9069;52.044;7.472;2022-11-20T13:39:29;7.70;95.60
17887;DHT22;9069;52.044;7.472;2022-11-20T13:42:01;7.70;95.40
17887;DHT22;9069;52.044;7.472;2022-11-20T13:44:43;7.60;95.60
17887;DHT22;9069;52.044;7.472;2022-11-20T13:47:22;7.60;95.20
17887;DHT22;9069;52.044;7.472;2022-11-20T13:49:49;7.60;95.20
17887;DHT22;9069;52.044;7.472;2022-11-20T13:55:27;7.60;95.20
17887;DHT22;9069;52.044;7.472;2022-11-20T14:01:10;7.50;94.90
17887;DHT22;9069;52.044;7.472;2022-11-20T14:03:40;7.50;95.70
17887;DHT22;9069;52.044;7.472;2022-11-20T14:06:33;7.50;95.90
17887;DHT22;9069;52.044;7.472;2022-11-20T14:09:01;7.40;95.50
17887;DHT22;9069;52.044;7.472;2022-11-20T14:11:29;7.40;95.90
17887;DHT22;9069;52.044;7.472;2022-11-20T14:16:30;7.40;95.50
17887;DHT22;9069;52.044;7.472;2022-11-20T14:19:08;7.30;95.80
17887;DHT22;9069;52.044;7.472;2022-11-20T14:21:43;7.30;95.80
17887;DHT22;9069;52.044;7.472;2022-11-20T14:24:11;7.30;95.90
17887;DHT22;9069;52.044;7.472;2022-11-20T14:26:43;7.30;95.90
17887;DHT22;9069;52.044;7.472;2022-11-20T14:29:16;7.20;95.70
17887;DHT22;9069;52.044;7.472;2022-11-20T14:31:45;7.20;95.70
17887;DHT22;9069;52.044;7.472;2022-11-20T14:34:25;7.20;95.90
17887;DHT22;9069;52.044;7.472;2022-11-20T14:36:57;7.20;95.70
17887;DHT22;9069;52.044;7.472;2022-11-20T14:39:31;7.20;95.90
17887;DHT22;9069;52.044;7.472;2022-11-20T14:41:58;7.20;95.70
17887;DHT22;9069;52.044;7.472;2022-11-20T14:44:31;7.10;96.10
17887;DHT22;9069;52.044;7.472;2022-11-20T14:47:00;7.20;95.90
17887;DHT22;9069;52.044;7.472;2022-11-20T14:49:30;7.10;96.10
17887;DHT22;9069;52.044;7.472;2022-11-20T14:52:02;7.10;96.10
17887;DHT22;9069;52.044;7.472;2022-11-20T14:54:44;7.10;95.90
17887;DHT22;9069;52.044;7.472;2022-11-20T14:57:21;7.10;95.80
17887;DHT22;9069;52.044;7.472;2022-11-20T14:59:48;7.10;95.80
17887;DHT22;9069;52.044;7.472;2022-11-20T15:02:16;7.20;96.40
17887;DHT22;9069;52.044;7.472;2022-11-20T15:04:47;7.20;96.30
17887;DHT22;9069;52.044;7.472;2022-11-20T15:07:26;7.20;96.00
17887;DHT22;9069;52.044;7.472;2022-11-20T15:10:04;7.10;95.60
17887;DHT22;9069;52.044;7.472;2022-11-20T15:12:33;7.10;95.60
17887;DHT22;9069;52.044;7.472;2022-11-20T15:15:02;7.10;95.90
17887;DHT22;9069;52.044;7.472;2022-11-20T15:17:30;7.10;95.90
17887;DHT22;9069;52.044;7.472;2022-11-20T15:19:59;7.00;95.80
17887;DHT22;9069;52.044;7.472;2022-11-20T15:22:28;7.00;95.80
17887;DHT22;9069;52.044;7.472;2022-11-20T15:24:54;7.00;95.90
17887;DHT22;9069;52.044;7.472;2022-11-20T15:27:21;7.00;95.90
17887;DHT22;9069;52.044;7.472;2022-11-20T15:29:48;7.00;96.00
17887;DHT22;9069;52.044;7.472;2022-11-20T15:32:14;7.00;96.00
17887;DHT22;9069;52.044;7.472;2022-11-20T15:34:41;6.90;96.00
17887;DHT22;9069;52.044;7.472;2022-11-20T15:37:08;6.90;95.90
17887;DHT22;9069;52.044;7.472;2022-11-20T15:39:35;6.90;95.90
17887;DHT22;9069;52.044;7.472;2022-11-20T15:42:01;6.90;95.70
17887;DHT22;9069;52.044;7.472;2022-11-20T15:44:28;6.80;95.80
17887;DHT22;9069;52.044;7.472;2022-11-20T15:46:55;6.80;95.90
17887;DHT22;9069;52.044;7.472;2022-11-20T15:49:21;6.70;95.80
17887;DHT22;9069;52.044;7.472;2022-11-20T15:51:50;6.70;95.80
17887;DHT22;9069;52.044;7.472;2022-11-20T15:54:21;6.70;95.80
17887;DHT22;9069;52.044;7.472;2022-11-20T15:56:49;6.70;95.70
17887;DHT22;9069;52.044;7.472;2022-11-20T15:59:18;6.60;95.60
17887;DHT22;9069;52.044;7.472;2022-11-20T16:01:45;6.60;95.60
17887;DHT22;9069;52.044;7.472;2022-11-20T16:04:14;6.60;95.70
17887;DHT22;9069;52.044;7.472;2022-11-20T16:06:41;6.50;95.80
17887;DHT22;9069;52.044;7.472;2022-11-20T16:09:08;6.50;95.90
17887;DHT22;9069;52.044;7.472;2022-11-20T16:11:36;6.50;95.90
17887;DHT22;9069;52.044;7.472;2022-11-20T16:14:04;6.50;96.10
17887;DHT22;9069;52.044;7.472;2022-11-20T16:16:50;6.40;96.00
17887;DHT22;9069;52.044;7.472;2022-11-20T16:19:17;6.40;96.10
17887;DHT22;9069;52.044;7.472;2022-11-20T16:21:45;6.40;96.30
17887;DHT22;9069;52.044;7.472;2022-11-20T16:24:13;6.40;96.30
17887;DHT22;9069;52.044;7.472;2022-11-20T16:26:40;6.40;96.30
17887;DHT22;9069;52.044;7.472;2022-11-20T16:29:07;6.40;96.40
17887;DHT22;9069;52.044;7.472;2022-11-20T16:31:34;6.40;96.50
17887;DHT22;9069;52.044;7.472;2022-11-20T16:34:04;6.40;96.40
17887;DHT22;9069;52.044;7.472;2022-11-20T16:36:41;6.40;96.20
17887;DHT22;9069;52.044;7.472;2022-11-20T16:39:09;6.40;96.20
17887;DHT22;9069;52.044;7.472;2022-11-20T16:41:35;6.40;96.40
17887;DHT22;9069;52.044;7.472;2022-11-20T16:44:07;6.40;96.40
17887;DHT22;9069;52.044;7.472;2022-11-20T16:46:34;6.40;96.20
17887;DHT22;9069;52.044;7.472;2022-11-20T16:49:03;6.40;96.30
17887;DHT22;9069;52.044;7.472;2022-11-20T16:51:34;6.40;96.10
17887;DHT22;9069;52.044;7.472;2022-11-20T16:54:05;6.40;96.20
17887;DHT22;9069;52.044;7.472;2022-11-20T16:56:32;6.40;96.30
17887;DHT22;9069;52.044;7.472;2022-11-20T16:58:59;6.40;96.20
17887;DHT22;9069;52.044;7.472;2022-11-20T17:01:27;6.40;96.20
17887;DHT22;9069;52.044;7.472;2022-11-20T17:04:03;6.30;96.30
17887;DHT22;9069;52.044;7.472;2022-11-20T17:06:35;6.30;96.10
17887;DHT22;9069;52.044;7.472;2022-11-20T17:09:03;6.30;96.30
17887;DHT22;9069;52.044;7.472;2022-11-20T17:11:30;6.30;96.50
17887;DHT22;9069;52.044;7.472;2022-11-20T17:13:57;6.20;96.60
17887;DHT22;9069;52.044;7.472;2022-11-20T17:16:26;6.20;96.60
17887;DHT22;9069;52.044;7.472;2022-11-20T17:18:57;6.20;96.80
17887;DHT22;9069;52.044;7.472;2022-11-20T17:21:30;6.10;96.70
17887;DHT22;9069;52.044;7.472;2022-11-20T17:24:00;6.10;96.80
17887;DHT22;9069;52.044;7.472;2022-11-20T17:26:29;6.00;96.80
17887;DHT22;9069;52.044;7.472;2022-11-20T17:29:01;6.00;97.00
17887;DHT22;9069;52.044;7.472;2022-11-20T17:31:29;5.90;97.00
17887;DHT22;9069;52.044;7.472;2022-11-20T17:33:57;5.90;97.20
17887;DHT22;9069;52.044;7.472;2022-11-20T17:36:26;5.90;97.40
17887;DHT22;9069;52.044;7.472;2022-11-20T17:38:53;5.80;97.50
17887;DHT22;9069;52.044;7.472;2022-11-20T17:41:21;5.80;97.60
17887;DHT22;9069;52.044;7.472;2022-11-20T17:43:48;5.80;97.60
17887;DHT22;9069;52.044;7.472;2022-11-20T17:46:20;5.70;97.70
17887;DHT22;9069;52.044;7.472;2022-11-20T17:48:48;5.70;97.80
17887;DHT22;9069;52.044;7.472;2022-11-20T17:51:17;5.70;98.20
17887;DHT22;9069;52.044;7.472;2022-11-20T17:53:47;5.60;98.10
17887;DHT22;9069;52.044;7.472;2022-11-20T17:56:14;5.60;97.90
17887;DHT22;9069;52.044;7.472;2022-11-20T17:59:03;5.60;98.00
17887;DHT22;9069;52.044;7.472;2022-11-20T18:01:30;5.50;98.10
17887;DHT22;9069;52.044;7.472;2022-11-20T18:03:57;5.50;98.20
17887;DHT22;9069;52.044;7.472;2022-11-20T18:06:25;5.40;98.30
17887;DHT22;9069;52.044;7.472;2022-11-20T18:08:52;5.30;98.30